createdAt,value
2023-05-14T00:00:36.373Z,36.04
2023-05-14T00:01:36.400Z,36.01
2023-05-14T00:02:36.484Z,36.00
2023-05-14T00:03:36.495Z,36.04
2023-05-14T00:04:36.565Z,36.04
2023-05-14T00:05:36.425Z,36.01
2023-05-14T00:06:36.454Z,36.04
2023-05-14T00:07:36.456Z,36.05
2023-05-14T00:08:36.472Z,36.01
2023-05-14T00:09:36.482Z,36.05
2023-05-14T00:10:36.525Z,36.02
2023-05-14T00:11:36.535Z,36.06
2023-05-14T00:12:36.529Z,36.08
2023-05-14T00:13:36.538Z,36.01
2023-05-14T00:14:36.555Z,36.04
2023-05-14T00:15:36.578Z,36.06
2023-05-14T00:16:36.655Z,36.04
2023-05-14T00:17:36.637Z,36.05
2023-05-14T00:18:36.637Z,36.05
2023-05-14T00:19:36.639Z,36.04
2023-05-14T00:20:36.643Z,36.04
2023-05-14T00:21:36.662Z,36.05
2023-05-14T00:22:36.667Z,36.05
2023-05-14T00:23:36.680Z,36.01
2023-05-14T00:24:36.727Z,36.08
2023-05-14T00:25:36.713Z,36.02
2023-05-14T00:26:36.748Z,36.01
2023-05-14T00:27:36.756Z,36.05
2023-05-14T00:28:36.790Z,36.06
2023-05-14T00:29:36.847Z,36.01
2023-05-14T00:30:36.798Z,36.04
2023-05-14T00:31:36.881Z,36.02
2023-05-14T00:32:36.867Z,36.01
2023-05-14T00:33:36.864Z,36.06
2023-05-14T00:34:36.899Z,36.05
2023-05-14T00:35:36.870Z,36.05
2023-05-14T00:36:36.889Z,36.04
2023-05-14T00:37:36.909Z,36.06
2023-05-14T00:38:36.941Z,36.07
2023-05-14T00:39:36.939Z,36.07
2023-05-14T00:40:36.962Z,36.09
2023-05-14T00:41:36.967Z,36.05
2023-05-14T00:42:36.984Z,36.05
2023-05-14T00:43:37.007Z,36.06
2023-05-14T00:44:37.018Z,36.07
2023-05-14T00:45:37.040Z,36.09
2023-05-14T00:46:37.063Z,36.05
2023-05-14T00:47:37.090Z,36.06
2023-05-14T00:48:37.085Z,36.02
2023-05-14T00:49:37.088Z,36.07
2023-05-14T00:50:37.109Z,36.04
2023-05-14T00:51:37.137Z,36.06
2023-05-14T00:52:37.132Z,36.02
2023-05-14T00:53:37.167Z,36.05
2023-05-14T00:54:37.165Z,36.07
2023-05-14T00:55:37.184Z,36.09
2023-05-14T00:56:37.206Z,36.06
2023-05-14T00:57:37.219Z,36.05
2023-05-14T00:58:37.231Z,36.06
2023-05-14T00:59:37.267Z,36.02
2023-05-14T01:00:37.335Z,36.07
2023-05-14T01:01:37.295Z,36.09
2023-05-14T01:02:37.379Z,36.07
2023-05-14T01:03:37.456Z,36.04
2023-05-14T01:04:37.352Z,36.04
2023-05-14T01:05:37.355Z,36.07
2023-05-14T01:06:37.364Z,36.04
2023-05-14T01:07:37.400Z,36.10
2023-05-14T01:08:37.426Z,36.06
2023-05-14T01:09:37.447Z,36.04
2023-05-14T01:10:37.488Z,36.07
2023-05-14T01:11:37.470Z,36.06
2023-05-14T01:12:37.469Z,36.06
2023-05-14T01:13:37.500Z,36.06
2023-05-14T01:14:37.512Z,36.07
2023-05-14T01:15:37.555Z,36.03
2023-05-14T01:16:37.560Z,36.06
2023-05-14T01:17:37.587Z,36.10
2023-05-14T01:18:37.669Z,36.07
2023-05-14T01:19:37.585Z,36.06
2023-05-14T01:20:37.620Z,36.07
2023-05-14T01:21:37.623Z,36.08
2023-05-14T01:22:37.626Z,36.05
2023-05-14T01:23:37.653Z,36.07
2023-05-14T01:24:37.663Z,36.07
2023-05-14T01:25:37.664Z,36.06
2023-05-14T01:26:37.715Z,36.06
2023-05-14T01:27:37.694Z,36.03
2023-05-14T01:28:37.705Z,36.06
2023-05-14T01:29:37.718Z,36.07
2023-05-14T01:30:37.730Z,36.02
2023-05-14T01:31:37.774Z,36.05
2023-05-14T01:32:37.758Z,36.00
2023-05-14T01:33:37.798Z,36.08
2023-05-14T01:34:37.778Z,36.06
2023-05-14T01:35:37.793Z,36.05
2023-05-14T01:36:37.812Z,35.99
2023-05-14T01:37:37.815Z,36.04
2023-05-14T01:38:37.837Z,36.03
2023-05-14T01:39:37.859Z,36.04
2023-05-14T01:40:37.851Z,35.99
2023-05-14T01:41:37.862Z,36.03
2023-05-14T01:42:37.860Z,36.03
2023-05-14T01:43:37.940Z,36.03
2023-05-14T01:44:37.905Z,36.04
2023-05-14T01:45:37.919Z,36.02
2023-05-14T01:46:38.125Z,36.03
2023-05-14T01:47:37.987Z,36.07
2023-05-14T01:48:37.970Z,36.05
2023-05-14T01:49:37.990Z,36.01
2023-05-14T01:50:38.008Z,36.04
2023-05-14T01:51:38.035Z,36.06
2023-05-14T01:52:38.047Z,36.04
2023-05-14T01:53:38.069Z,36.02
2023-05-14T01:54:38.083Z,36.07
2023-05-14T01:55:38.107Z,36.03
2023-05-14T01:56:38.117Z,36.03
2023-05-14T01:57:38.133Z,36.02
2023-05-14T01:58:38.149Z,36.03
2023-05-14T01:59:38.172Z,36.03
2023-05-14T02:00:38.210Z,36.00
2023-05-14T02:01:38.279Z,36.03
2023-05-14T02:02:38.275Z,36.05
2023-05-14T02:03:38.291Z,36.04
2023-05-14T02:04:38.346Z,36.07
2023-05-14T02:05:38.333Z,36.05
2023-05-14T02:06:38.350Z,36.05
2023-05-14T02:07:38.380Z,36.10
2023-05-14T02:08:38.420Z,36.05
2023-05-14T02:09:38.417Z,36.07
2023-05-14T02:10:38.439Z,36.04
2023-05-14T02:11:38.464Z,36.04
2023-05-14T02:12:38.478Z,36.03
2023-05-14T02:13:38.507Z,36.04
2023-05-14T02:14:38.514Z,36.03
2023-05-14T02:15:38.584Z,36.03
2023-05-14T02:16:38.563Z,36.01
2023-05-14T02:17:38.674Z,36.05
2023-05-14T02:18:38.658Z,36.08
2023-05-14T02:19:38.648Z,36.04
2023-05-14T02:20:38.657Z,36.05
2023-05-14T02:21:38.679Z,36.00
2023-05-14T02:22:38.702Z,36.07
2023-05-14T02:23:41.836Z,36.05
2023-05-14T02:24:38.723Z,36.03
2023-05-14T02:25:38.730Z,36.08
2023-05-14T02:26:38.692Z,36.04
2023-05-14T02:27:38.683Z,36.05
2023-05-14T02:28:38.723Z,36.05
2023-05-14T02:29:38.712Z,36.08
2023-05-14T02:30:38.680Z,36.04
2023-05-14T02:31:38.672Z,36.06
2023-05-14T02:32:38.753Z,36.09
2023-05-14T02:33:38.661Z,36.04
2023-05-14T02:34:38.641Z,36.01
2023-05-14T02:35:38.647Z,36.05
2023-05-14T02:36:38.620Z,36.07
2023-05-14T02:37:38.644Z,36.06
2023-05-14T02:38:38.613Z,36.07
2023-05-14T02:39:38.643Z,36.03
2023-05-14T02:40:38.609Z,36.05
2023-05-14T02:41:38.594Z,36.08
2023-05-14T02:42:38.586Z,36.08
2023-05-14T02:43:38.592Z,36.05
2023-05-14T02:44:38.581Z,36.03
2023-05-14T02:45:38.590Z,36.06
2023-05-14T02:46:38.582Z,36.08
2023-05-14T02:47:38.605Z,36.09
2023-05-14T02:48:38.554Z,36.08
2023-05-14T02:49:38.544Z,36.09
2023-05-14T02:50:38.541Z,36.06
2023-05-14T02:51:38.548Z,36.09
2023-05-14T02:52:38.541Z,36.06
2023-05-14T02:53:38.533Z,36.08
2023-05-14T02:54:38.520Z,36.08
2023-05-14T02:55:38.511Z,36.09
2023-05-14T02:56:38.518Z,36.06
2023-05-14T02:57:38.506Z,36.05
2023-05-14T02:58:38.488Z,36.09
2023-05-14T02:59:38.495Z,36.12
2023-05-14T03:00:38.514Z,36.09
2023-05-14T03:01:38.489Z,36.08
2023-05-14T03:02:38.551Z,36.05
2023-05-14T03:03:38.453Z,36.06
2023-05-14T03:04:38.455Z,36.10
2023-05-14T03:05:38.457Z,36.02
2023-05-14T03:06:38.442Z,36.06
2023-05-14T03:07:38.429Z,36.04
2023-05-14T03:08:38.432Z,36.04
2023-05-14T03:09:38.577Z,36.08
2023-05-14T03:10:38.422Z,36.08
2023-05-14T03:11:38.419Z,36.06
2023-05-14T03:12:38.390Z,36.06
2023-05-14T03:13:38.395Z,36.08
2023-05-14T03:14:38.374Z,36.06
2023-05-14T03:15:38.373Z,36.04
2023-05-14T03:16:38.390Z,36.09
2023-05-14T03:17:38.411Z,36.09
2023-05-14T03:18:38.398Z,36.09
2023-05-14T03:19:38.337Z,36.04
2023-05-14T03:20:38.344Z,36.10
2023-05-14T03:21:38.346Z,36.09
2023-05-14T03:22:38.336Z,36.09
2023-05-14T03:23:38.351Z,36.10
2023-05-14T03:24:38.396Z,36.07
2023-05-14T03:25:38.419Z,36.11
2023-05-14T03:26:38.447Z,36.06
2023-05-14T03:27:38.473Z,36.09
2023-05-14T03:28:38.520Z,36.10
2023-05-14T03:29:38.561Z,36.07
2023-05-14T03:30:38.600Z,36.06
2023-05-14T03:31:38.607Z,36.09
2023-05-14T03:32:38.678Z,36.09
2023-05-14T03:33:38.661Z,36.06
2023-05-14T03:34:38.696Z,36.12
2023-05-14T03:35:38.751Z,36.08
2023-05-14T03:36:38.743Z,36.11
2023-05-14T03:37:38.778Z,36.05
2023-05-14T03:38:38.800Z,36.02
2023-05-14T03:39:38.836Z,36.06
2023-05-14T03:40:38.861Z,36.08
2023-05-14T03:41:38.880Z,36.06
2023-05-14T03:42:38.891Z,36.05
2023-05-14T03:43:38.922Z,36.06
2023-05-14T03:44:38.945Z,36.09
2023-05-14T03:45:38.993Z,36.06
2023-05-14T03:46:38.989Z,36.04
2023-05-14T03:47:39.062Z,36.05
2023-05-14T03:48:39.073Z,36.05
2023-05-14T03:49:39.064Z,36.09
2023-05-14T03:50:39.105Z,36.07
2023-05-14T03:51:39.168Z,36.10
2023-05-14T03:52:39.144Z,36.08
2023-05-14T03:53:39.190Z,36.09
2023-05-14T03:54:39.207Z,36.02
2023-05-14T03:55:39.241Z,36.06
2023-05-14T03:56:39.283Z,36.06
2023-05-14T03:57:39.281Z,36.04
2023-05-14T03:58:39.305Z,36.06
2023-05-14T03:59:39.320Z,36.03
2023-05-14T04:00:39.348Z,36.01
2023-05-14T04:01:39.388Z,35.98
2023-05-14T04:02:39.621Z,36.04
2023-05-14T04:03:39.513Z,36.00
2023-05-14T04:04:39.502Z,36.03
2023-05-14T04:05:39.476Z,36.00
2023-05-14T04:06:39.500Z,36.04
2023-05-14T04:07:39.559Z,36.03
2023-05-14T04:08:39.556Z,35.99
2023-05-14T04:09:39.588Z,36.01
2023-05-14T04:10:39.610Z,35.96
2023-05-14T04:11:39.646Z,36.03
2023-05-14T04:12:39.653Z,35.97
2023-05-14T04:13:39.678Z,36.00
2023-05-14T04:14:39.699Z,36.00
2023-05-14T04:15:39.724Z,35.99
2023-05-14T04:16:39.819Z,35.92
2023-05-14T04:17:39.810Z,35.95
2023-05-14T04:18:39.829Z,35.99
2023-05-14T04:19:39.822Z,35.96
2023-05-14T04:20:39.851Z,35.95
2023-05-14T04:21:39.903Z,35.91
2023-05-14T04:22:39.917Z,35.91
2023-05-14T04:23:39.935Z,35.94
2023-05-14T04:24:39.930Z,35.93
2023-05-14T04:25:39.962Z,35.94
2023-05-14T04:26:39.986Z,35.92
2023-05-14T04:27:40.004Z,35.92
2023-05-14T04:28:40.039Z,35.92
2023-05-14T04:29:40.056Z,35.96
2023-05-14T04:30:40.086Z,35.95
2023-05-14T04:31:40.158Z,35.95
2023-05-14T04:32:40.155Z,35.92
2023-05-14T04:33:40.201Z,35.96
2023-05-14T04:34:40.184Z,35.96
2023-05-14T04:35:40.224Z,35.95
2023-05-14T04:36:40.273Z,35.95
2023-05-14T04:37:40.258Z,35.96
2023-05-14T04:38:40.287Z,36.00
2023-05-14T04:39:40.310Z,35.98
2023-05-14T04:40:40.362Z,36.00
2023-05-14T04:41:40.384Z,36.01
2023-05-14T04:42:40.385Z,35.97
2023-05-14T04:43:40.415Z,35.97
2023-05-14T04:44:40.468Z,35.96
2023-05-14T04:45:40.532Z,35.98
2023-05-14T04:46:40.495Z,36.01
2023-05-14T04:47:40.582Z,36.00
2023-05-14T04:48:40.556Z,35.99
2023-05-14T04:49:40.576Z,35.96
2023-05-14T04:50:40.602Z,35.96
2023-05-14T04:51:40.638Z,36.03
2023-05-14T04:52:40.673Z,35.96
2023-05-14T04:53:40.682Z,35.98
2023-05-14T04:54:40.771Z,36.00
2023-05-14T04:55:40.712Z,35.97
2023-05-14T04:56:40.758Z,35.98
2023-05-14T04:57:40.765Z,35.97
2023-05-14T04:58:40.802Z,35.98
2023-05-14T04:59:40.834Z,35.98
2023-05-14T05:00:40.863Z,36.00
2023-05-14T05:01:40.977Z,36.02
2023-05-14T05:02:40.941Z,35.99
2023-05-14T05:03:40.977Z,36.03
2023-05-14T05:04:40.989Z,36.05
2023-05-14T05:05:41.010Z,35.99
2023-05-14T05:06:41.036Z,36.05
2023-05-14T05:07:41.126Z,36.02
2023-05-14T05:08:41.101Z,36.00
2023-05-14T05:09:41.152Z,36.00
2023-05-14T05:10:41.178Z,36.01
2023-05-14T05:11:41.559Z,35.95
2023-05-14T05:12:41.227Z,36.00
2023-05-14T05:13:41.255Z,35.98
2023-05-14T05:14:41.303Z,35.97
2023-05-14T05:15:41.305Z,35.98
2023-05-14T05:16:41.337Z,36.01
2023-05-14T05:17:41.388Z,35.97
2023-05-14T05:18:41.433Z,35.96
2023-05-14T05:19:44.290Z,35.97
2023-05-14T05:20:41.411Z,36.00
2023-05-14T05:21:41.409Z,36.00
2023-05-14T05:22:41.400Z,35.97
2023-05-14T05:23:41.385Z,36.01
2023-05-14T05:24:41.387Z,36.01
2023-05-14T05:25:41.381Z,35.93
2023-05-14T05:26:41.375Z,35.94
2023-05-14T05:27:41.356Z,35.98
2023-05-14T05:28:41.353Z,36.00
2023-05-14T05:29:41.359Z,35.96
2023-05-14T05:30:41.354Z,35.97
2023-05-14T05:31:41.424Z,35.97
2023-05-14T05:32:41.374Z,36.02
2023-05-14T05:33:41.339Z,35.98
2023-05-14T05:34:41.312Z,35.98
2023-05-14T05:35:41.310Z,35.97
2023-05-14T05:36:41.306Z,35.96
2023-05-14T05:37:41.305Z,35.97
2023-05-14T05:38:41.293Z,35.98
2023-05-14T05:39:41.298Z,35.96
2023-05-14T05:40:41.282Z,35.96
2023-05-14T05:41:41.266Z,35.94
2023-05-14T05:42:41.279Z,35.94
2023-05-14T05:43:41.267Z,35.93
2023-05-14T05:44:41.245Z,35.94
2023-05-14T05:45:41.267Z,35.97
2023-05-14T05:46:41.362Z,35.96
2023-05-14T05:47:41.302Z,35.98
2023-05-14T05:48:41.218Z,35.95
2023-05-14T05:49:41.209Z,35.96
2023-05-14T05:50:41.228Z,35.97
2023-05-14T05:51:41.206Z,35.98
2023-05-14T05:52:41.198Z,35.98
2023-05-14T05:53:41.206Z,35.97
2023-05-14T05:54:41.174Z,35.94
2023-05-14T05:55:41.212Z,35.98
2023-05-14T05:56:41.165Z,35.98
2023-05-14T05:57:41.158Z,36.00
2023-05-14T05:58:41.146Z,35.94
2023-05-14T05:59:41.151Z,35.95
2023-05-14T06:00:41.137Z,35.97
2023-05-14T06:01:41.198Z,35.98
2023-05-14T06:02:41.220Z,35.95
2023-05-14T06:03:41.130Z,35.91
2023-05-14T06:04:41.109Z,35.93
2023-05-14T06:05:41.206Z,35.94
2023-05-14T06:06:41.095Z,35.95
2023-05-14T06:07:41.097Z,35.92
2023-05-14T06:08:41.080Z,35.95
2023-05-14T06:09:41.071Z,35.91
2023-05-14T06:10:41.068Z,35.91
2023-05-14T06:11:41.070Z,35.88
2023-05-14T06:12:41.055Z,35.89
2023-05-14T06:13:41.036Z,35.86
2023-05-14T06:14:41.038Z,35.90
2023-05-14T06:15:41.048Z,35.89
2023-05-14T06:16:41.038Z,35.86
2023-05-14T06:17:41.083Z,35.86
2023-05-14T06:18:41.097Z,35.86
2023-05-14T06:19:41.088Z,35.91
2023-05-14T06:20:41.110Z,35.91
2023-05-14T06:21:41.153Z,35.92
2023-05-14T06:22:41.174Z,35.87
2023-05-14T06:23:41.193Z,35.90
2023-05-14T06:24:41.217Z,35.86
2023-05-14T06:25:41.267Z,35.84
2023-05-14T06:26:41.276Z,35.91
2023-05-14T06:27:41.299Z,35.90
2023-05-14T06:28:41.329Z,35.90
2023-05-14T06:29:41.353Z,35.86
2023-05-14T06:30:41.393Z,35.90
2023-05-14T06:31:41.428Z,35.87
2023-05-14T06:32:41.551Z,35.87
2023-05-14T06:33:41.467Z,35.87
2023-05-14T06:34:41.481Z,35.87
2023-05-14T06:35:41.517Z,35.87
2023-05-14T06:36:41.549Z,35.86
2023-05-14T06:37:41.576Z,35.86
2023-05-14T06:38:41.577Z,35.84
2023-05-14T06:39:41.617Z,35.84
2023-05-14T06:40:41.637Z,35.85
2023-05-14T06:41:41.666Z,35.87
2023-05-14T06:42:41.686Z,35.81
2023-05-14T06:43:41.709Z,35.85
2023-05-14T06:44:41.732Z,35.84
2023-05-14T06:45:41.758Z,35.85
2023-05-14T06:46:41.767Z,35.84
2023-05-14T06:47:41.823Z,35.77
2023-05-14T06:48:41.834Z,35.84
2023-05-14T06:49:41.836Z,35.80
2023-05-14T06:50:41.847Z,35.81
2023-05-14T06:51:41.873Z,35.79
2023-05-14T06:52:41.896Z,35.82
2023-05-14T06:53:41.904Z,35.80
2023-05-14T06:54:41.943Z,35.79
2023-05-14T06:55:41.958Z,35.77
2023-05-14T06:56:41.978Z,35.77
2023-05-14T06:57:41.999Z,35.77
2023-05-14T06:58:42.014Z,35.82
2023-05-14T06:59:42.044Z,35.74
2023-05-14T07:00:42.055Z,35.74
2023-05-14T07:01:42.175Z,35.77
2023-05-14T07:02:42.127Z,35.76
2023-05-14T07:03:42.116Z,35.73
2023-05-14T07:04:42.314Z,35.74
2023-05-14T07:05:42.174Z,35.71
2023-05-14T07:06:42.197Z,35.67
2023-05-14T07:07:42.207Z,35.70
2023-05-14T07:08:42.243Z,35.69
2023-05-14T07:09:42.268Z,35.74
2023-05-14T07:10:42.271Z,35.76
2023-05-14T07:11:42.300Z,35.71
2023-05-14T07:12:42.320Z,35.69
2023-05-14T07:13:42.343Z,35.69
2023-05-14T07:14:42.347Z,35.66
2023-05-14T07:15:42.370Z,35.67
2023-05-14T07:16:42.457Z,35.71
2023-05-14T07:17:42.451Z,35.65
2023-05-14T07:18:42.449Z,35.68
2023-05-14T07:19:42.442Z,35.68
2023-05-14T07:20:42.455Z,35.66
2023-05-14T07:21:42.478Z,35.68
2023-05-14T07:22:42.508Z,35.67
2023-05-14T07:23:42.497Z,35.65
2023-05-14T07:24:42.554Z,35.68
2023-05-14T07:25:42.533Z,35.70
2023-05-14T07:26:42.581Z,35.67
2023-05-14T07:27:42.575Z,35.68
2023-05-14T07:28:42.621Z,35.66
2023-05-14T07:29:42.616Z,35.66
2023-05-14T07:30:42.623Z,35.67
2023-05-14T07:31:42.730Z,35.64
2023-05-14T07:32:42.706Z,35.63
2023-05-14T07:33:42.677Z,35.62
2023-05-14T07:34:42.691Z,35.60
2023-05-14T07:35:42.694Z,35.63
2023-05-14T07:36:42.706Z,35.63
2023-05-14T07:37:42.728Z,35.62
2023-05-14T07:38:42.731Z,35.59
2023-05-14T07:39:42.734Z,35.61
2023-05-14T07:40:42.778Z,35.62
2023-05-14T07:41:42.772Z,35.63
2023-05-14T07:42:42.771Z,35.60
2023-05-14T07:43:42.784Z,35.57
2023-05-14T07:44:42.811Z,35.61
2023-05-14T07:45:42.825Z,35.57
2023-05-14T07:46:42.840Z,35.57
2023-05-14T07:47:42.942Z,35.56
2023-05-14T07:48:42.869Z,35.53
2023-05-14T07:49:42.817Z,35.57
2023-05-14T07:50:42.817Z,35.54
2023-05-14T07:51:42.856Z,35.55
2023-05-14T07:52:42.821Z,35.55
2023-05-14T07:53:42.827Z,35.52
2023-05-14T07:54:42.841Z,35.53
2023-05-14T07:55:42.831Z,35.50
2023-05-14T07:56:42.873Z,35.54
2023-05-14T07:57:42.846Z,35.50
2023-05-14T07:58:42.857Z,35.49
2023-05-14T07:59:42.854Z,35.46
2023-05-14T08:00:42.838Z,35.39
2023-05-14T08:01:42.844Z,35.40
2023-05-14T08:02:42.928Z,35.33
2023-05-14T08:03:42.942Z,35.30
2023-05-14T08:04:42.833Z,35.30
2023-05-14T08:05:42.818Z,35.26
2023-05-14T08:06:42.841Z,35.25
2023-05-14T08:07:42.808Z,35.25
2023-05-14T08:08:42.837Z,35.23
2023-05-14T08:09:42.818Z,35.16
2023-05-14T08:10:42.844Z,35.13
2023-05-14T08:11:42.837Z,35.07
2023-05-14T08:12:42.856Z,35.07
2023-05-14T08:13:42.810Z,35.09
2023-05-14T08:14:42.815Z,35.01
2023-05-14T08:15:42.822Z,35.05
2023-05-14T08:16:42.906Z,35.00
2023-05-14T08:17:42.913Z,35.04
2023-05-14T08:18:42.943Z,35.03
2023-05-14T08:19:42.870Z,34.99
2023-05-14T08:20:42.905Z,35.05
2023-05-14T08:21:42.954Z,35.01
2023-05-14T08:22:42.975Z,34.98
2023-05-14T08:23:43.020Z,34.95
2023-05-14T08:24:43.044Z,34.96
2023-05-14T08:25:43.082Z,34.94
2023-05-14T08:26:43.195Z,34.93
2023-05-14T08:27:43.210Z,34.93
2023-05-14T08:28:43.271Z,34.89
2023-05-14T08:29:43.327Z,34.90
2023-05-14T08:30:43.389Z,34.83
2023-05-14T08:31:43.468Z,34.87
2023-05-14T08:32:43.554Z,34.87
2023-05-14T08:33:43.597Z,34.81
2023-05-14T08:34:44.134Z,34.85
2023-05-14T08:35:43.696Z,34.81
2023-05-14T08:36:43.760Z,34.80
2023-05-14T08:37:43.824Z,34.76
2023-05-14T08:38:43.880Z,34.75
2023-05-14T08:39:43.932Z,34.72
2023-05-14T08:40:43.991Z,34.74
2023-05-14T08:41:44.057Z,34.68
2023-05-14T08:42:44.118Z,34.72
2023-05-14T08:43:44.164Z,34.65
2023-05-14T08:44:44.257Z,34.62
2023-05-14T08:45:44.272Z,34.61
2023-05-14T08:46:44.295Z,34.58
2023-05-14T08:47:44.378Z,34.50
2023-05-14T08:48:44.416Z,34.52
2023-05-14T08:49:44.461Z,34.55
2023-05-14T08:50:44.483Z,34.54
2023-05-14T08:51:44.538Z,34.50
2023-05-14T08:52:44.578Z,34.50
2023-05-14T08:53:44.620Z,34.54
2023-05-14T08:54:44.648Z,34.46
2023-05-14T08:55:44.692Z,34.42
2023-05-14T08:56:44.719Z,34.45
2023-05-14T08:57:44.787Z,34.44
2023-05-14T08:58:44.791Z,34.43
2023-05-14T08:59:44.834Z,34.39
2023-05-14T09:00:44.868Z,34.40
2023-05-14T09:01:44.917Z,34.39
2023-05-14T09:02:45.007Z,34.43
2023-05-14T09:03:45.007Z,34.38
2023-05-14T09:04:45.015Z,34.41
2023-05-14T09:05:45.040Z,34.39
2023-05-14T09:06:45.080Z,34.41
2023-05-14T09:07:45.116Z,34.42
2023-05-14T09:08:45.150Z,34.42
2023-05-14T09:09:45.168Z,34.47
2023-05-14T09:10:45.210Z,34.47
2023-05-14T09:11:45.232Z,34.45
2023-05-14T09:12:45.268Z,34.52
2023-05-14T09:13:45.380Z,34.55
2023-05-14T09:14:45.324Z,34.54
2023-05-14T09:15:45.356Z,34.57
2023-05-14T09:16:45.434Z,34.54
2023-05-14T09:17:45.474Z,34.58
2023-05-14T09:18:45.536Z,34.57
2023-05-14T09:19:45.479Z,34.67
2023-05-14T09:20:45.520Z,34.65
2023-05-14T09:21:45.543Z,34.64
2023-05-14T09:22:45.580Z,34.70
2023-05-14T09:23:45.606Z,34.70
2023-05-14T09:24:45.628Z,34.67
2023-05-14T09:25:45.659Z,34.69
2023-05-14T09:26:45.684Z,34.74
2023-05-14T09:27:45.717Z,34.70
2023-05-14T09:28:45.762Z,34.74
2023-05-14T09:29:45.785Z,34.72
2023-05-14T09:30:45.844Z,34.74
2023-05-14T09:31:45.947Z,34.79
2023-05-14T09:32:46.047Z,34.76
2023-05-14T09:33:45.916Z,34.77
2023-05-14T09:34:45.960Z,34.77
2023-05-14T09:35:45.982Z,34.76
2023-05-14T09:36:46.008Z,34.72
2023-05-14T09:37:46.074Z,34.78
2023-05-14T09:38:46.074Z,34.81
2023-05-14T09:39:46.107Z,34.76
2023-05-14T09:40:46.149Z,34.79
2023-05-14T09:41:46.197Z,34.76
2023-05-14T09:42:46.216Z,34.77
2023-05-14T09:43:46.238Z,34.83
2023-05-14T09:44:46.270Z,34.82
2023-05-14T09:45:46.299Z,34.80
2023-05-14T09:46:46.329Z,34.80
2023-05-14T09:47:46.510Z,34.81
2023-05-14T09:48:46.465Z,34.81
2023-05-14T09:49:46.433Z,34.81
2023-05-14T09:50:46.463Z,34.80
2023-05-14T09:51:46.492Z,34.86
2023-05-14T09:52:46.515Z,34.82
2023-05-14T09:53:46.551Z,34.87
2023-05-14T09:54:46.597Z,34.86
2023-05-14T09:55:46.623Z,34.86
2023-05-14T09:56:46.653Z,34.88
2023-05-14T09:57:46.710Z,34.91
2023-05-14T09:58:46.717Z,34.85
2023-05-14T09:59:46.754Z,34.94
2023-05-14T10:00:46.814Z,34.94
2023-05-14T10:01:46.839Z,34.89
2023-05-14T10:02:46.934Z,34.93
2023-05-14T10:03:46.916Z,34.89
2023-05-14T10:04:46.988Z,34.97
2023-05-14T10:05:46.967Z,34.90
2023-05-14T10:06:47.003Z,34.95
2023-05-14T10:07:47.057Z,34.94
2023-05-14T10:08:47.058Z,34.95
2023-05-14T10:09:47.101Z,34.96
2023-05-14T10:10:47.137Z,35.03
2023-05-14T10:11:47.158Z,34.99
2023-05-14T10:12:47.237Z,34.96
2023-05-14T10:13:47.223Z,35.01
2023-05-14T10:14:47.302Z,35.04
2023-05-14T10:15:47.317Z,35.05
2023-05-14T10:16:47.376Z,35.03
2023-05-14T10:17:47.429Z,35.03
2023-05-14T10:18:47.455Z,35.04
2023-05-14T10:19:47.477Z,35.03
2023-05-14T10:20:47.496Z,35.03
2023-05-14T10:21:47.555Z,35.01
2023-05-14T10:22:47.597Z,35.05
2023-05-14T10:23:47.623Z,35.02
2023-05-14T10:24:47.678Z,35.03
2023-05-14T10:25:47.695Z,35.01
2023-05-14T10:26:47.749Z,35.05
2023-05-14T10:27:47.777Z,35.03
2023-05-14T10:28:47.809Z,35.03
2023-05-14T10:29:47.859Z,35.09
2023-05-14T10:30:47.879Z,35.06
2023-05-14T10:31:48.028Z,35.02
2023-05-14T10:32:48.002Z,35.03
2023-05-14T10:33:48.001Z,35.03
2023-05-14T10:34:48.037Z,35.05
2023-05-14T10:35:48.079Z,35.06
2023-05-14T10:36:48.128Z,35.09
2023-05-14T10:37:48.168Z,35.02
2023-05-14T10:38:48.202Z,35.05
2023-05-14T10:39:48.243Z,35.06
2023-05-14T10:40:48.296Z,35.07
2023-05-14T10:41:48.335Z,35.01
2023-05-14T10:42:48.382Z,35.02
2023-05-14T10:43:48.413Z,35.05
2023-05-14T10:44:48.472Z,35.05
2023-05-14T10:45:48.528Z,35.08
2023-05-14T10:46:48.567Z,35.07
2023-05-14T10:47:48.792Z,35.11
2023-05-14T10:48:48.640Z,35.05
2023-05-14T10:49:48.670Z,35.08
2023-05-14T10:50:48.741Z,35.08
2023-05-14T10:51:48.770Z,35.09
2023-05-14T10:52:48.822Z,35.09
2023-05-14T10:53:48.847Z,35.15
2023-05-14T10:54:48.907Z,35.08
2023-05-14T10:55:48.939Z,35.12
2023-05-14T10:56:48.986Z,35.13
2023-05-14T10:57:49.041Z,35.13
2023-05-14T10:58:49.081Z,35.12
2023-05-14T10:59:49.137Z,35.12
2023-05-14T11:00:49.177Z,35.09
2023-05-14T11:01:49.283Z,35.08
2023-05-14T11:02:49.278Z,35.12
2023-05-14T11:03:49.362Z,35.08
2023-05-14T11:04:49.364Z,35.08
2023-05-14T11:05:49.414Z,35.12
2023-05-14T11:06:49.437Z,35.05
2023-05-14T11:07:49.487Z,35.08
2023-05-14T11:08:49.540Z,35.09
2023-05-14T11:09:49.584Z,35.14
2023-05-14T11:10:49.623Z,35.08
2023-05-14T11:11:49.677Z,35.02
2023-05-14T11:12:49.737Z,35.05
2023-05-14T11:13:49.749Z,35.12
2023-05-14T11:14:49.803Z,35.06
2023-05-14T11:15:49.893Z,35.01
2023-05-14T11:16:50.025Z,35.04
2023-05-14T11:17:49.980Z,34.97
2023-05-14T11:18:50.006Z,35.00
2023-05-14T11:19:51.219Z,34.95
2023-05-14T11:20:50.052Z,35.03
2023-05-14T11:21:50.135Z,35.03
2023-05-14T11:22:50.191Z,35.02
2023-05-14T11:23:50.206Z,35.01
2023-05-14T11:24:50.246Z,35.02
2023-05-14T11:25:50.321Z,34.98
2023-05-14T11:26:50.340Z,34.98
2023-05-14T11:27:50.399Z,34.93
2023-05-14T11:28:50.460Z,35.02
2023-05-14T11:29:50.490Z,34.97
2023-05-14T11:30:50.541Z,34.96
2023-05-14T11:31:50.632Z,34.98
2023-05-14T11:32:50.762Z,34.99
2023-05-14T11:33:50.689Z,35.01
2023-05-14T11:34:50.729Z,34.96
2023-05-14T11:35:50.790Z,34.89
2023-05-14T11:36:50.840Z,34.94
2023-05-14T11:37:50.891Z,34.97
2023-05-14T11:38:50.957Z,34.91
2023-05-14T11:39:50.995Z,34.96
2023-05-14T11:40:51.046Z,34.98
2023-05-14T11:41:51.139Z,34.93
2023-05-14T11:42:51.176Z,34.95
2023-05-14T11:43:51.249Z,34.93
2023-05-14T11:44:51.283Z,34.98
2023-05-14T11:45:51.396Z,34.96
2023-05-14T11:46:51.386Z,34.97
2023-05-14T11:47:51.506Z,35.00
2023-05-14T11:48:51.493Z,34.94
2023-05-14T11:49:51.541Z,34.97
2023-05-14T11:50:51.603Z,34.94
2023-05-14T11:51:51.665Z,34.99
2023-05-14T11:52:51.708Z,35.00
2023-05-14T11:53:51.799Z,34.93
2023-05-14T11:54:51.856Z,34.95
2023-05-14T11:55:51.888Z,34.95
2023-05-14T11:56:51.956Z,35.00
2023-05-14T11:57:52.040Z,35.02
2023-05-14T11:58:52.053Z,35.00
2023-05-14T11:59:52.118Z,35.06
2023-05-14T12:00:52.166Z,35.04
2023-05-14T12:01:52.220Z,35.09
2023-05-14T12:02:52.350Z,35.04
2023-05-14T12:03:52.465Z,35.06
2023-05-14T12:04:52.461Z,35.06
2023-05-14T12:05:52.464Z,35.07
2023-05-14T12:06:52.530Z,35.08
2023-05-14T12:07:52.584Z,35.08
2023-05-14T12:08:52.662Z,35.09
2023-05-14T12:09:52.699Z,35.09
2023-05-14T12:10:52.778Z,35.08
2023-05-14T12:11:52.808Z,35.08
2023-05-14T12:12:52.892Z,35.08
2023-05-14T12:13:52.939Z,35.12
2023-05-14T12:14:52.988Z,35.12
2023-05-14T12:15:53.098Z,35.09
2023-05-14T12:16:53.105Z,35.09
2023-05-14T12:17:53.234Z,35.07
2023-05-14T12:18:53.236Z,35.11
2023-05-14T12:19:53.308Z,35.09
2023-05-14T12:20:53.373Z,35.11
2023-05-14T12:21:53.401Z,35.13
2023-05-14T12:22:53.484Z,35.08
2023-05-14T12:23:53.531Z,35.11
2023-05-14T12:24:53.581Z,35.09
2023-05-14T12:25:53.643Z,35.08
2023-05-14T12:26:53.703Z,35.11
2023-05-14T12:27:53.787Z,35.12
2023-05-14T12:28:53.807Z,35.09
2023-05-14T12:29:53.865Z,35.09
2023-05-14T12:30:53.929Z,35.08
2023-05-14T12:31:54.099Z,35.12
2023-05-14T12:32:54.087Z,35.16
2023-05-14T12:33:54.118Z,35.16
2023-05-14T12:34:54.176Z,35.13
2023-05-14T12:35:54.227Z,35.12
2023-05-14T12:36:54.298Z,35.16
2023-05-14T12:37:54.388Z,35.14
2023-05-14T12:38:54.422Z,35.17
2023-05-14T12:39:54.491Z,35.11
2023-05-14T12:40:54.526Z,35.14
2023-05-14T12:41:54.606Z,35.15
2023-05-14T12:42:56.699Z,35.12
2023-05-14T12:43:54.716Z,35.17
2023-05-14T12:44:54.783Z,35.13
2023-05-14T12:45:54.854Z,35.14
2023-05-14T12:46:54.968Z,35.15
2023-05-14T12:47:55.014Z,35.16
2023-05-14T12:48:55.034Z,35.14
2023-05-14T12:49:55.084Z,35.16
2023-05-14T12:50:55.138Z,35.16
2023-05-14T12:52:07.845Z,35.21
2023-05-14T12:52:56.226Z,35.20